Time;durP1;ratioP1;P1;durP2;ratioP2;P2;SDS_P1;SDS_P2;PMS_P1;PMS_P2;Temp;Humidity;BMP_temperature;BMP_pressure;BME280_temperature;BME280_humidity;BME280_pressure;Samples;Min_cycle;Max_cycle;Signal;HPM_P1;HPM_P2
2023/04/27 00:01:35;;;;;;;6.32;1.90;;;;;;;7.87;54.76;101560.88;4978462;28;20488;-45
2023/04/27 00:04:03;;;;;;;6.05;1.65;;;;;;;7.86;54.74;101559.19;4973761;28;20030;-44
2023/04/27 00:06:29;;;;;;;4.97;1.38;;;;;;;7.78;54.92;101554.19;4982474;28;20850;-45
2023/04/27 00:08:54;;;;;;;4.57;1.23;;;;;;;7.75;54.42;101555.13;4969628;28;20125;-44
2023/04/27 00:11:20;;;;;;;3.38;1.42;;;;;;;7.75;54.40;101551.66;4979921;28;21528;-44
2023/04/27 00:13:45;;;;;;;7.55;1.63;;;;;;;7.74;54.64;101549.97;4979201;28;20035;-44
2023/04/27 00:16:11;;;;;;;5.35;1.30;;;;;;;7.79;54.07;101553.25;4978098;28;20038;-45
2023/04/27 00:18:37;;;;;;;4.85;1.70;;;;;;;7.80;54.26;101547.13;4975731;28;20039;-45
2023/04/27 00:21:02;;;;;;;4.07;1.40;;;;;;;7.85;53.84;101542.59;4976463;28;20480;-43
2023/04/27 00:23:28;;;;;;;6.32;2.17;;;;;;;7.79;54.19;101550.63;4979818;28;20030;-46
2023/04/27 00:25:53;;;;;;;5.88;1.77;;;;;;;7.78;53.73;101547.19;4961674;28;20147;-45
2023/04/27 00:28:19;;;;;;;4.68;1.50;;;;;;;7.76;54.14;101545.53;4972270;28;20116;-46
2023/04/27 00:30:45;;;;;;;5.38;1.55;;;;;;;7.74;54.01;101548.19;4972573;28;20038;-44
2023/04/27 00:33:10;;;;;;;6.05;1.42;;;;;;;7.67;54.19;101548.44;4980373;28;20038;-43
2023/04/27 00:35:36;;;;;;;4.13;2.10;;;;;;;7.66;54.20;101551.94;4968489;28;20030;-45
2023/04/27 00:38:01;;;;;;;3.97;1.30;;;;;;;7.63;54.00;101547.69;4971240;28;20066;-44
2023/04/27 00:40:27;;;;;;;6.50;1.70;;;;;;;7.56;54.33;101565.34;4975985;28;20034;-45
2023/04/27 00:42:52;;;;;;;4.95;1.40;;;;;;;7.56;54.15;101561.91;4959233;28;20031;-44
2023/04/27 00:45:18;;;;;;;3.30;1.42;;;;;;;7.60;53.91;101559.13;4965319;28;20112;-43
2023/04/27 00:47:44;;;;;;;3.72;1.15;;;;;;;7.61;54.06;101555.59;4967731;28;20045;-46
2023/04/27 00:50:10;;;;;;;2.67;1.55;;;;;;;7.59;54.11;101565.28;4973261;28;20035;-45
2023/04/27 00:52:37;;;;;;;4.18;1.58;;;;;;;7.68;53.42;101565.84;4967363;28;20066;-46
2023/04/27 00:55:03;;;;;;;5.75;2.03;;;;;;;7.68;53.56;101569.34;4973370;28;20034;-44
2023/04/27 00:57:29;;;;;;;5.50;1.70;;;;;;;7.71;53.48;101571.88;4977683;28;20041;-44
2023/04/27 00:59:54;;;;;;;7.72;2.00;;;;;;;7.73;53.38;101575.28;4975285;28;20026;-44
2023/04/27 01:02:20;;;;;;;7.82;1.95;;;;;;;7.69;53.49;101573.69;4977994;28;20038;-45
2023/04/27 01:04:49;;;;;;;4.22;1.88;;;;;;;7.65;53.33;101576.44;4972038;28;20038;-44
2023/04/27 01:07:15;;;;;;;7.43;1.60;;;;;;;7.54;53.68;101567.16;4971672;28;20149;-44
2023/04/27 01:09:40;;;;;;;10.32;1.67;;;;;;;7.50;53.67;101573.41;4974367;28;20108;-46
2023/04/27 01:12:07;;;;;;;5.05;1.80;;;;;;;7.49;53.88;101571.69;4973587;28;20037;-46
2023/04/27 01:14:32;;;;;;;6.78;1.75;;;;;;;7.39;53.96;101570.25;4974163;28;20890;-43
2023/04/27 01:16:57;;;;;;;12.32;1.83;;;;;;;7.32;54.09;101575.72;4974676;28;20126;-44
2023/04/27 01:19:23;;;;;;;6.93;1.92;;;;;;;7.28;53.85;101576.69;4977767;28;20030;-44
2023/04/27 01:21:48;;;;;;;6.03;1.60;;;;;;;7.23;54.48;101570.72;4974166;28;20038;-45
2023/04/27 01:24:14;;;;;;;3.55;1.45;;;;;;;7.28;54.21;101568.84;4981866;28;20498;-45
2023/04/27 01:26:39;;;;;;;6.03;1.80;;;;;;;7.27;54.22;101572.38;4976036;28;20040;-44
2023/04/27 01:29:05;;;;;;;5.97;1.40;;;;;;;7.25;54.09;101566.31;4976060;28;20536;-46
2023/04/27 01:31:30;;;;;;;3.88;1.23;;;;;;;7.27;54.09;101577.59;4973310;28;20157;-44
2023/04/27 01:33:56;;;;;;;8.23;2.15;;;;;;;7.33;53.76;101577.41;4967252;28;20042;-46
2023/04/27 01:36:21;;;;;;;3.38;1.67;;;;;;;7.30;53.70;101581.88;4971531;28;20033;-44
2023/04/27 01:38:47;;;;;;;6.18;1.60;;;;;;;7.21;53.93;101582.16;4981863;28;20034;-43
2023/04/27 01:41:12;;;;;;;4.75;1.75;;;;;;;7.25;54.25;101584.63;4978973;28;22296;-45
2023/04/27 01:43:38;;;;;;;5.07;1.42;;;;;;;7.27;53.71;101589.81;4975624;28;20030;-44
2023/04/27 01:46:11;;;;;;;3.40;1.50;;;;;;;7.35;53.73;101581.72;4972771;28;20034;-44
2023/04/27 01:48:37;;;;;;;8.48;1.58;;;;;;;7.29;53.67;101585.41;4972611;28;20122;-44
2023/04/27 01:51:03;;;;;;;7.75;2.88;;;;;;;7.24;54.01;101593.41;4973053;28;20035;-44
2023/04/27 01:53:29;;;;;;;6.47;1.80;;;;;;;7.08;54.00;101593.00;4977036;28;20554;-44
2023/04/27 01:55:55;;;;;;;7.03;1.90;;;;;;;7.11;54.25;101586.81;4977123;28;20152;-44
2023/04/27 01:58:21;;;;;;;4.88;2.28;;;;;;;7.19;53.45;101600.50;4974754;28;20035;-46
2023/04/27 02:00:46;;;;;;;5.38;2.22;;;;;;;7.21;53.71;101601.34;4981029;28;20115;-45
2023/04/27 02:03:11;;;;;;;8.68;2.08;;;;;;;7.10;53.90;101598.19;4974712;28;20038;-43
2023/04/27 02:05:37;;;;;;;15.35;4.15;;;;;;;7.09;54.09;101594.72;4973000;28;20038;-44
2023/04/27 02:08:03;;;;;;;4.55;1.85;;;;;;;7.13;53.72;101596.31;4973886;28;20061;-44
2023/04/27 02:10:28;;;;;;;10.35;2.20;;;;;;;7.13;53.73;101603.34;4980665;28;20053;-44
2023/04/27 02:12:53;;;;;;;6.18;2.35;;;;;;;7.19;53.81;101595.28;4977849;28;20030;-44
2023/04/27 02:15:19;;;;;;;2.70;1.77;;;;;;;7.16;53.90;101605.88;4970270;28;20550;-46
2023/04/27 02:17:45;;;;;;;6.70;1.55;;;;;;;7.15;54.15;101604.16;4975844;28;21500;-46
2023/04/27 02:20:11;;;;;;;6.95;2.05;;;;;;;7.07;54.32;101608.72;4977799;28;20125;-46
2023/04/27 02:22:42;;;;;;;4.60;1.75;;;;;;;7.11;53.96;101602.53;4983977;28;20403;-45
2023/04/27 02:25:07;;;;;;;8.40;2.40;;;;;;;7.13;53.89;101616.41;4967850;28;20053;-46
2023/04/27 02:27:36;;;;;;;6.03;2.05;;;;;;;7.13;54.00;101613.81;4983071;28;20452;-44
2023/04/27 02:30:07;;;;;;;5.53;2.20;;;;;;;7.12;54.05;101614.69;4972701;28;20027;-44
2023/04/27 02:32:33;;;;;;;10.70;2.42;;;;;;;7.10;53.90;101617.38;4974004;28;20545;-43
2023/04/27 02:34:59;;;;;;;8.40;1.95;;;;;;;7.05;54.07;101621.00;4976099;28;20548;-44
2023/04/27 02:37:24;;;;;;;7.65;2.03;;;;;;;7.00;54.23;101610.69;4976978;28;20037;-43
2023/04/27 02:39:50;;;;;;;5.55;1.45;;;;;;;7.01;53.90;101613.25;4980669;28;20045;-43
2023/04/27 02:42:15;;;;;;;4.70;1.73;;;;;;;6.99;54.03;101614.19;4979404;28;20517;-43
2023/04/27 02:44:41;;;;;;;8.15;1.80;;;;;;;6.90;54.36;101620.53;4974468;28;20026;-45
2023/04/27 02:47:06;;;;;;;7.28;2.05;;;;;;;6.95;54.34;101613.44;4978169;28;20027;-44
2023/04/27 02:49:32;;;;;;;8.60;2.03;;;;;;;6.90;54.84;101615.31;4975027;28;20393;-45
2023/04/27 02:51:57;;;;;;;4.97;1.58;;;;;;;6.86;55.15;101622.41;4976766;28;20034;-46
2023/04/27 02:54:23;;;;;;;4.38;2.65;;;;;;;6.85;54.74;101619.84;4978977;28;20039;-46
2023/04/27 02:56:48;;;;;;;5.47;2.10;;;;;;;6.90;54.71;101617.09;4977289;28;20039;-43
2023/04/27 02:59:13;;;;;;;4.88;2.45;;;;;;;6.87;54.86;101620.66;4972924;28;20096;-44
2023/04/27 03:01:39;;;;;;;7.93;1.75;;;;;;;6.85;54.81;101622.44;4981045;28;20042;-44
2023/04/27 03:04:04;;;;;;;7.45;2.47;;;;;;;6.76;55.19;101622.69;4969817;28;20045;-46
2023/04/27 03:06:30;;;;;;;4.70;1.55;;;;;;;6.67;55.57;101622.06;4973410;28;20089;-43
2023/04/27 03:08:55;;;;;;;12.65;3.47;;;;;;;6.67;55.50;101623.78;4973030;28;20030;-44
2023/04/27 03:11:21;;;;;;;7.20;2.72;;;;;;;6.69;55.67;101625.50;4980539;28;20035;-49
2023/04/27 03:13:46;;;;;;;7.38;2.00;;;;;;;6.74;55.21;101624.47;4970344;28;20088;-45
2023/04/27 03:16:12;;;;;;;9.45;2.35;;;;;;;6.70;55.69;101619.34;4968942;28;20046;-44
2023/04/27 03:18:38;;;;;;;8.07;2.10;;;;;;;6.75;55.22;101615.75;4981109;28;20026;-44
2023/04/27 03:21:10;;;;;;;5.63;1.67;;;;;;;6.79;55.24;101620.00;4975279;28;20037;-46
2023/04/27 03:23:36;;;;;;;5.75;2.17;;;;;;;6.85;54.85;101627.69;4982796;28;20129;-43
2023/04/27 03:26:19;;;;;;;6.78;2.38;;;;;;;6.89;55.43;101629.28;4978538;28;20043;-44
2023/04/27 03:28:45;;;;;;;4.82;3.10;;;;;;;6.74;55.56;101630.59;4970288;28;20041;-45
2023/04/27 03:31:13;;;;;;;3.55;1.67;;;;;;;6.70;55.62;101640.28;4969272;28;20033;-46
2023/04/27 03:33:39;;;;;;;9.45;2.05;;;;;;;6.66;56.07;101638.63;4973849;28;20033;-45
2023/04/27 03:36:06;;;;;;;7.72;2.03;;;;;;;6.62;56.05;101647.47;4973605;28;20026;-43
2023/04/27 03:38:32;;;;;;;4.30;1.55;;;;;;;6.60;55.78;101653.66;4974525;28;20045;-45
2023/04/27 03:40:58;;;;;;;4.85;1.92;;;;;;;6.60;55.68;101651.88;4973117;28;20042;-45
2023/04/27 03:43:24;;;;;;;9.30;2.28;;;;;;;6.62;56.18;101650.06;4970813;28;20026;-45
2023/04/27 03:45:49;;;;;;;4.03;2.00;;;;;;;6.62;56.00;101652.69;4976701;28;20018;-45
2023/04/27 03:48:15;;;;;;;8.73;2.45;;;;;;;6.71;55.57;101654.22;4967032;28;20096;-43
2023/04/27 03:50:42;;;;;;;8.75;2.60;;;;;;;6.65;55.91;101647.38;4970159;28;20444;-44
2023/04/27 03:53:07;;;;;;;4.95;1.95;;;;;;;6.66;55.72;101650.84;4977815;28;20030;-45
2023/04/27 03:55:33;;;;;;;8.05;2.10;;;;;;;6.68;56.10;101652.53;4970443;28;20030;-44
2023/04/27 03:57:58;;;;;;;5.70;2.80;;;;;;;6.77;55.53;101658.41;4977246;28;20034;-46
2023/04/27 04:00:24;;;;;;;8.85;1.80;;;;;;;6.85;55.55;101659.06;4976771;28;20042;-44
2023/04/27 04:02:50;;;;;;;3.55;2.33;;;;;;;6.80;55.65;101661.81;4972385;28;20042;-43
2023/04/27 04:05:17;;;;;;;5.57;2.13;;;;;;;6.83;55.54;101666.94;4978227;28;20465;-44
2023/04/27 04:07:43;;;;;;;11.15;2.72;;;;;;;6.78;56.10;101665.38;4971082;28;20121;-44
2023/04/27 04:10:09;;;;;;;9.30;2.53;;;;;;;6.75;56.25;101662.81;4969878;28;20613;-44
2023/04/27 04:12:35;;;;;;;4.07;1.63;;;;;;;6.73;56.00;101667.25;4977574;28;20031;-44
2023/04/27 04:15:01;;;;;;;7.13;2.30;;;;;;;6.79;55.96;101672.31;4973204;28;20049;-45
2023/04/27 04:17:26;;;;;;;10.20;2.17;;;;;;;6.81;55.97;101684.44;4974758;28;20523;-44
2023/04/27 04:19:52;;;;;;;7.07;2.50;;;;;;;6.80;56.13;101681.88;4972159;28;20042;-45
2023/04/27 04:22:17;;;;;;;7.15;2.30;;;;;;;6.74;56.45;101684.66;4976134;28;20045;-45
2023/04/27 04:24:43;;;;;;;8.35;2.00;;;;;;;6.60;57.23;101683.25;4972011;28;20030;-44
2023/04/27 04:27:08;;;;;;;6.90;2.78;;;;;;;6.59;56.99;101678.06;4976363;28;20014;-45
2023/04/27 04:29:34;;;;;;;5.88;2.47;;;;;;;6.62;56.72;101689.31;4974181;28;20120;-45
2023/04/27 04:31:59;;;;;;;14.55;2.65;;;;;;;6.60;57.38;101695.47;4954293;28;20046;-44
2023/04/27 04:34:25;;;;;;;6.40;1.95;;;;;;;6.64;57.17;101690.13;4967705;28;20437;-45
2023/04/27 04:36:50;;;;;;;8.77;2.45;;;;;;;6.66;56.97;101701.41;4959887;28;20045;-45
2023/04/27 04:39:21;;;;;;;8.48;1.98;;;;;;;6.77;56.61;101695.91;4965592;28;20038;-44
2023/04/27 04:41:51;;;;;;;7.18;2.35;;;;;;;6.76;56.78;101695.94;4968007;28;20076;-46
2023/04/27 04:44:16;;;;;;;6.35;2.45;;;;;;;6.77;56.95;101702.88;4970610;28;20556;-47
2023/04/27 04:46:42;;;;;;;14.38;2.20;;;;;;;6.83;56.75;101707.97;4971479;28;20101;-45
2023/04/27 04:49:08;;;;;;;6.65;2.10;;;;;;;6.81;56.86;101704.53;4970389;28;20030;-43
2023/04/27 04:51:33;;;;;;;9.23;2.15;;;;;;;6.85;56.86;101706.16;4971281;28;20034;-48
2023/04/27 04:53:59;;;;;;;9.57;2.67;;;;;;;6.92;56.78;101712.94;4977964;28;20101;-45
2023/04/27 04:56:25;;;;;;;8.15;2.28;;;;;;;6.98;56.52;101711.91;4980110;28;20030;-44
2023/04/27 04:58:50;;;;;;;3.35;1.90;;;;;;;6.94;56.76;101705.91;4969018;28;20037;-45
2023/04/27 05:01:16;;;;;;;4.90;2.25;;;;;;;7.00;56.47;101711.00;4971021;28;20026;-44
2023/04/27 05:03:41;;;;;;;7.15;2.67;;;;;;;6.97;56.48;101710.19;4978052;28;20049;-47
2023/04/27 05:06:07;;;;;;;7.57;2.72;;;;;;;7.01;56.53;101717.94;4978323;28;20527;-45
2023/04/27 05:08:33;;;;;;;7.40;2.30;;;;;;;7.07;56.71;101716.03;4976103;28;20133;-46
2023/04/27 05:10:58;;;;;;;5.90;2.25;;;;;;;7.12;56.81;101719.41;4973504;28;20034;-47
2023/04/27 05:13:24;;;;;;;8.63;2.17;;;;;;;7.04;57.20;101721.34;4978392;28;20401;-44
2023/04/27 05:15:50;;;;;;;6.50;2.25;;;;;;;7.10;56.97;101723.81;4976197;28;20489;-45
2023/04/27 05:18:16;;;;;;;10.68;2.20;;;;;;;7.16;56.65;101715.81;4976386;28;20100;-47
2023/04/27 05:20:41;;;;;;;5.85;2.22;;;;;;;7.24;56.37;101723.44;4979696;28;20039;-45
2023/04/27 05:23:07;;;;;;;11.63;3.08;;;;;;;7.16;56.87;101718.41;4982438;28;20515;-45
2023/04/27 05:25:33;;;;;;;6.03;3.08;;;;;;;7.09;57.48;101714.25;4975747;28;20049;-47
2023/04/27 05:27:59;;;;;;;8.52;2.25;;;;;;;7.09;56.65;101714.25;4976930;28;20113;-45
2023/04/27 05:30:26;;;;;;;7.70;2.28;;;;;;;7.07;57.25;101711.69;4980084;28;20479;-44
2023/04/27 05:32:51;;;;;;;8.40;1.88;;;;;;;6.94;57.98;101721.59;4972696;28;20041;-44
2023/04/27 05:35:17;;;;;;;8.98;2.08;;;;;;;6.87;58.16;101717.47;4983154;28;20050;-44
2023/04/27 05:37:42;;;;;;;6.32;1.83;;;;;;;6.91;57.94;101723.47;4979272;28;20038;-47
2023/04/27 05:40:08;;;;;;;10.65;2.50;;;;;;;6.89;58.11;101726.09;4980317;28;20034;-44
2023/04/27 05:42:34;;;;;;;16.67;7.30;;;;;;;6.89;57.78;101720.03;4987470;28;20033;-45
2023/04/27 05:45:00;;;;;;;11.00;3.42;;;;;;;7.03;57.51;101727.50;4973066;28;20030;-46
2023/04/27 05:47:25;;;;;;;5.03;2.13;;;;;;;7.04;57.65;101721.34;4977957;28;20030;-45
2023/04/27 05:49:52;;;;;;;4.00;1.70;;;;;;;7.05;57.94;101726.56;4990321;28;20050;-46
2023/04/27 05:52:18;;;;;;;6.30;2.42;;;;;;;7.13;57.66;101724.56;4974518;28;20038;-45
2023/04/27 05:54:47;;;;;;;5.47;2.67;;;;;;;7.15;57.91;101729.78;4989954;28;20497;-44
2023/04/27 05:57:13;;;;;;;10.00;1.98;;;;;;;7.18;57.52;101724.47;4976483;28;20385;-45
2023/04/27 05:59:39;;;;;;;5.75;1.90;;;;;;;7.28;57.22;101736.41;4984324;28;20541;-48
2023/04/27 06:02:05;;;;;;;6.72;2.28;;;;;;;7.30;57.55;101723.25;4979583;28;20033;-44
2023/04/27 06:04:32;;;;;;;4.57;2.22;;;;;;;7.33;57.36;101724.00;4974827;28;20062;-45
2023/04/27 06:06:58;;;;;;;6.45;1.90;;;;;;;7.41;56.97;101728.19;4974917;28;20149;-46
2023/04/27 06:09:23;;;;;;;6.40;1.55;;;;;;;7.41;56.68;101728.19;4978515;28;22678;-45
2023/04/27 06:11:49;;;;;;;7.85;2.33;;;;;;;7.42;56.71;101727.28;4978574;28;20065;-45
2023/04/27 06:14:15;;;;;;;2.90;1.65;;;;;;;7.40;56.89;101731.72;4982387;28;20030;-45
2023/04/27 06:16:40;;;;;;;9.57;2.08;;;;;;;7.51;56.45;101734.03;4984880;28;20460;-44
2023/04/27 06:19:06;;;;;;;6.47;2.00;;;;;;;7.52;56.38;101741.81;4975227;28;20385;-46
2023/04/27 06:21:34;;;;;;;6.97;2.75;;;;;;;7.53;56.19;101742.69;4976952;28;20031;-44
2023/04/27 06:24:00;;;;;;;3.90;1.75;;;;;;;7.55;56.44;101733.88;4984318;28;20034;-48
2023/04/27 06:26:26;;;;;;;6.88;2.10;;;;;;;7.60;56.42;101741.59;4980298;28;20029;-44
2023/04/27 06:28:53;;;;;;;3.97;2.10;;;;;;;7.69;55.92;101740.47;4986513;28;20537;-44
2023/04/27 06:31:19;;;;;;;10.07;2.25;;;;;;;7.75;55.80;101745.56;4984676;28;20544;-44
2023/04/27 06:33:44;;;;;;;5.28;2.05;;;;;;;7.62;56.65;101742.41;4976382;28;20035;-45
2023/04/27 06:36:10;;;;;;;5.82;2.70;;;;;;;7.71;56.21;101744.78;4977347;28;20047;-44
2023/04/27 06:38:35;;;;;;;14.82;3.75;;;;;;;7.66;56.25;101738.81;4980101;28;20027;-44
2023/04/27 06:41:02;;;;;;;5.57;1.65;;;;;;;7.70;56.27;101747.44;4982605;28;20042;-44
2023/04/27 06:43:28;;;;;;;9.68;2.00;;;;;;;7.78;56.40;101738.44;4973235;28;20031;-46
2023/04/27 06:45:53;;;;;;;5.78;2.15;;;;;;;7.85;56.01;101733.88;4978314;28;20118;-45
2023/04/27 06:48:19;;;;;;;4.80;1.80;;;;;;;7.89;55.85;101732.88;4978087;28;20034;-46
2023/04/27 06:50:44;;;;;;;6.85;1.88;;;;;;;7.89;56.00;101732.88;4981717;28;20034;-44
2023/04/27 06:53:10;;;;;;;9.75;3.05;;;;;;;7.96;55.96;101737.91;4975392;28;20037;-46
2023/04/27 06:55:35;;;;;;;8.23;1.95;;;;;;;8.01;56.04;101749.13;4982355;28;20409;-45
2023/04/27 06:58:02;;;;;;;8.07;2.17;;;;;;;8.01;55.74;101736.03;4980600;28;20038;-45
2023/04/27 07:00:28;;;;;;;6.97;2.80;;;;;;;8.13;55.24;101743.50;4983634;28;20619;-49
2023/04/27 07:02:53;;;;;;;7.60;2.60;;;;;;;8.19;55.30;101740.69;4979259;28;20034;-46
2023/04/27 07:05:19;;;;;;;5.65;2.42;;;;;;;8.26;55.14;101748.34;4973017;28;20026;-46
2023/04/27 07:07:44;;;;;;;5.93;2.25;;;;;;;8.14;55.12;101747.84;4977318;28;20109;-45
2023/04/27 07:10:09;;;;;;;4.68;1.83;;;;;;;8.11;55.97;101741.84;4979353;28;20029;-45
2023/04/27 07:12:36;;;;;;;5.63;2.28;;;;;;;8.15;55.55;101743.47;4983398;28;20030;-45
2023/04/27 07:15:03;;;;;;;3.38;1.85;;;;;;;8.15;55.77;101739.06;4975557;28;20042;-47
2023/04/27 07:17:29;;;;;;;11.52;2.30;;;;;;;8.22;55.35;101740.59;4974036;28;20528;-47
2023/04/27 07:19:54;;;;;;;6.53;2.08;;;;;;;8.35;55.45;101745.47;4977598;28;20045;-45
2023/04/27 07:22:20;;;;;;;5.20;2.17;;;;;;;8.51;54.80;101751.94;4974713;28;20049;-46
2023/04/27 07:24:46;;;;;;;4.35;1.88;;;;;;;8.63;54.51;101752.44;4978969;28;20045;-45
2023/04/27 07:27:12;;;;;;;3.67;1.33;;;;;;;8.72;54.03;101759.16;4973111;28;20137;-45
2023/04/27 07:29:38;;;;;;;4.38;1.65;;;;;;;8.59;53.30;101756.06;4982293;28;20137;-44
2023/04/27 07:32:07;;;;;;;6.32;1.85;;;;;;;8.58;53.18;101760.47;4975861;28;20144;-45
2023/04/27 07:34:33;;;;;;;9.00;1.80;;;;;;;8.52;52.85;101764.16;4983228;28;20054;-44
2023/04/27 07:36:59;;;;;;;4.53;1.80;;;;;;;8.64;53.20;101762.03;4976186;28;20120;-44
2023/04/27 07:39:25;;;;;;;8.68;1.85;;;;;;;8.73;53.22;101753.84;4976213;28;20125;-44
2023/04/27 07:41:51;;;;;;;3.05;1.25;;;;;;;8.84;52.80;101758.72;4970653;28;20464;-44
2023/04/27 07:44:17;;;;;;;5.43;1.73;;;;;;;8.85;52.19;101763.06;4976492;28;20575;-45
2023/04/27 07:46:43;;;;;;;3.75;1.95;;;;;;;8.80;51.65;101762.38;4979354;28;20029;-44
2023/04/27 07:49:09;;;;;;;3.38;1.70;;;;;;;8.90;51.91;101770.78;4977392;28;20046;-47
2023/04/27 07:51:35;;;;;;;6.45;1.90;;;;;;;8.99;52.10;101762.63;4972867;28;20035;-45
2023/04/27 07:54:01;;;;;;;4.82;1.92;;;;;;;9.06;51.02;101769.34;4975137;28;20113;-44
2023/04/27 07:56:27;;;;;;;4.32;1.80;;;;;;;9.09;51.29;101757.88;4979064;28;20027;-45
2023/04/27 07:58:52;;;;;;;4.65;1.50;;;;;;;9.12;51.23;101776.16;4975730;28;20037;-44
2023/04/27 08:01:17;;;;;;;6.28;1.20;;;;;;;9.19;50.95;101769.78;4978485;28;20042;-46
2023/04/27 08:03:43;;;;;;;4.82;2.03;;;;;;;9.30;50.72;101785.16;4978401;28;20415;-44
2023/04/27 08:06:08;;;;;;;6.70;1.50;;;;;;;9.27;49.82;101786.13;4977038;28;20034;-45
2023/04/27 08:08:34;;;;;;;7.90;1.80;;;;;;;9.24;49.31;101769.63;4982946;28;20035;-47
2023/04/27 08:11:00;;;;;;;4.55;1.20;;;;;;;9.27;49.53;101780.84;4972083;28;20034;-44
2023/04/27 08:13:25;;;;;;;3.65;1.48;;;;;;;9.33;49.15;101790.28;4977868;28;20457;-44
2023/04/27 08:15:53;;;;;;;9.05;2.20;;;;;;;9.42;49.21;101782.09;4975773;28;20030;-45
2023/04/27 08:18:18;;;;;;;3.08;1.38;;;;;;;9.48;49.09;101785.38;4972481;28;20045;-44
2023/04/27 08:20:44;;;;;;;7.13;0.95;;;;;;;9.47;47.72;101789.81;4975752;28;20027;-44
2023/04/27 08:23:09;;;;;;;10.65;1.73;;;;;;;9.39;46.59;101787.44;4983869;28;20026;-45
2023/04/27 08:25:36;;;;;;;4.35;1.55;;;;;;;9.29;45.76;101786.06;4977705;28;20552;-46
2023/04/27 08:28:01;;;;;;;6.85;1.50;;;;;;;9.36;45.74;101786.72;4975119;28;20030;-46
2023/04/27 08:30:26;;;;;;;3.70;1.20;;;;;;;9.36;46.64;101802.47;4979371;28;20030;-46
2023/04/27 08:32:54;;;;;;;7.68;3.30;;;;;;;9.37;45.76;101791.06;4981045;28;20030;-46
2023/04/27 08:35:19;;;;;;;3.83;1.10;;;;;;;9.34;45.59;101799.03;4981827;28;20046;-46
2023/04/27 08:37:45;;;;;;;3.42;1.05;;;;;;;9.37;45.50;101788.44;4983242;28;20062;-44
2023/04/27 08:40:11;;;;;;;10.95;1.52;;;;;;;9.40;44.82;101794.41;4989033;28;20034;-46
2023/04/27 08:42:37;;;;;;;5.45;1.48;;;;;;;9.49;44.56;101782.72;4960558;28;20888;-45
2023/04/27 08:45:06;;;;;;;2.95;1.42;;;;;;;9.52;43.01;101787.00;4984113;28;20158;-44
2023/04/27 08:47:31;;;;;;;3.33;1.10;;;;;;;9.60;43.71;101791.06;4976165;28;20035;-45
2023/04/27 08:49:57;;;;;;;4.72;1.75;;;;;;;9.70;44.07;101780.19;4983401;28;20397;-44
2023/04/27 08:52:22;;;;;;;3.15;1.20;;;;;;;9.67;43.08;101788.22;4979927;28;20508;-47
2023/04/27 08:54:47;;;;;;;5.78;1.00;;;;;;;9.78;43.68;101788.66;4970574;28;20038;-45
2023/04/27 08:57:14;;;;;;;3.63;1.50;;;;;;;9.91;43.43;101786.41;4982630;28;20041;-48
2023/04/27 08:59:40;;;;;;;3.13;1.23;;;;;;;9.83;41.91;101812.16;4980167;28;20041;-44
2023/04/27 09:02:06;;;;;;;3.67;1.52;;;;;;;9.85;43.29;101782.25;4981932;28;20034;-44
2023/04/27 09:04:38;;;;;;;7.10;1.50;;;;;;;9.87;42.55;101775.16;4977534;28;20042;-45
2023/04/27 09:07:14;;;;;;;4.13;1.20;;;;;;;9.86;42.59;101786.59;4980641;28;20484;-44
2023/04/27 09:09:40;;;;;;;4.57;1.20;;;;;;;9.94;44.10;101783.66;4975890;28;20428;-46
2023/04/27 09:12:26;;;;;;;4.13;1.42;;;;;;;10.04;42.31;101773.66;4974556;28;20675;-45
2023/04/27 09:15:02;;;;;;;4.55;1.15;;;;;;;10.10;43.55;101772.56;4979388;28;20082;-44
2023/04/27 09:17:29;;;;;;;3.25;1.23;;;;;;;10.04;43.90;101781.56;4988953;28;20085;-46
2023/04/27 09:20:12;;;;;;;5.93;1.65;;;;;;;10.06;42.95;101788.44;4975730;28;20026;-46
2023/04/27 09:22:50;;;;;;;5.25;1.48;;;;;;;10.07;42.06;101779.66;4980348;28;20034;-44
2023/04/27 09:25:42;;;;;;;2.92;0.93;;;;;;;10.16;40.98;101790.75;4979692;28;20038;-44
2023/04/27 09:28:07;;;;;;;4.77;0.97;;;;;;;9.99;40.24;101776.47;4973744;28;20038;-46
2023/04/27 09:30:35;;;;;;;2.30;1.02;;;;;;;10.09;41.34;101779.59;4984550;28;20049;-44
2023/04/27 09:33:01;;;;;;;2.25;1.10;;;;;;;10.17;41.88;101774.03;4976668;28;20042;-46
2023/04/27 09:35:28;;;;;;;4.43;1.25;;;;;;;10.25;41.61;101782.47;4986244;28;20053;-44
2023/04/27 09:37:55;;;;;;;4.28;1.00;;;;;;;10.17;40.58;101766.16;4977223;28;20089;-44
2023/04/27 09:40:26;;;;;;;6.45;1.15;;;;;;;10.22;41.14;101778.19;4982756;28;20032;-44
2023/04/27 09:42:54;;;;;;;2.58;0.80;;;;;;;10.31;40.85;101771.72;4983262;28;20033;-47
2023/04/27 09:45:20;;;;;;;2.10;1.08;;;;;;;10.37;40.60;101776.72;4974341;28;20399;-46
2023/04/27 09:47:45;;;;;;;5.45;1.33;;;;;;;10.51;40.98;101757.78;4982107;28;20084;-44
2023/04/27 09:50:14;;;;;;;5.22;0.93;;;;;;;10.55;39.99;101763.75;4982473;28;20023;-49
2023/04/27 09:52:41;;;;;;;4.55;0.98;;;;;;;10.56;40.38;101768.13;4978664;28;20984;-45
2023/04/27 09:55:13;;;;;;;3.75;0.90;;;;;;;10.61;39.69;101768.78;4975501;28;20061;-44
2023/04/27 09:57:38;;;;;;;;;;;;;;;10.65;39.21;101766.88;4980009;28;20583;-48
2023/04/27 10:00:33;;;;;;;4.68;2.13;;;;;;;10.73;39.63;101756.03;4977903;28;20012;-44
2023/04/27 10:03:15;;;;;;;7.53;1.38;;;;;;;10.70;39.09;101764.91;4979366;28;20022;-44
2023/04/27 10:06:10;;;;;;;;;;;;;;;10.66;37.04;101760.69;4975604;28;21653;-46
2023/04/27 10:08:36;;;;;;;3.88;0.88;;;;;;;10.62;39.51;101767.88;4972318;28;19917;-44
2023/04/27 10:11:15;;;;;;;4.05;1.17;;;;;;;10.62;38.87;101757.34;4980942;28;20042;-45
2023/04/27 10:13:53;;;;;;;3.60;0.90;;;;;;;10.71;38.36;101764.00;4977187;28;20491;-48
2023/04/27 10:16:20;;;;;;;3.40;0.75;;;;;;;10.79;39.85;101758.41;4980453;28;20034;-45
2023/04/27 10:18:54;;;;;;;1.73;0.75;;;;;;;10.70;36.54;101757.03;4976819;28;20480;-45
2023/04/27 10:21:20;;;;;;;3.58;1.08;;;;;;;10.79;38.75;101753.16;4976598;28;20081;-44
2023/04/27 10:23:49;;;;;;;2.50;1.02;;;;;;;10.86;38.81;101741.41;4985944;28;20061;-48
2023/04/27 10:26:25;;;;;;;3.25;0.70;;;;;;;10.95;38.64;101746.31;4981516;28;20576;-45
2023/04/27 10:29:05;;;;;;;2.25;1.25;;;;;;;10.92;38.76;101746.44;4977148;28;20076;-46
2023/04/27 10:31:30;;;;;;;6.00;1.25;;;;;;;10.77;38.55;101753.19;4981572;28;20042;-45
2023/04/27 10:34:10;;;;;;;1.60;0.88;;;;;;;10.82;38.29;101750.34;4978922;28;20105;-44
2023/04/27 10:36:37;;;;;;;4.07;1.50;;;;;;;10.74;38.70;101747.22;4970063;28;23901;-44
2023/04/27 10:39:13;;;;;;;2.60;1.00;;;;;;;10.74;38.89;101745.41;4969764;28;20461;-45
2023/04/27 10:41:49;;;;;;;3.45;0.93;;;;;;;10.85;37.84;101744.13;4970834;28;20039;-49
2023/04/27 10:44:35;;;;;;;3.63;1.10;;;;;;;11.07;37.50;101760.69;4971023;28;20054;-45
2023/04/27 10:47:17;;;;;;;1.08;0.73;;;;;;;11.18;37.13;101748.84;4974625;28;20034;-46
2023/04/27 10:49:42;;;;;;;3.75;1.65;;;;;;;11.21;38.03;101735.53;4979245;28;20065;-48
2023/04/27 10:52:08;;;;;;;3.80;1.23;;;;;;;11.08;37.50;101743.13;4976865;28;20062;-46
2023/04/27 10:54:35;;;;;;;1.75;0.77;;;;;;;11.12;37.90;101750.81;4977003;28;20031;-45
2023/04/27 10:57:09;;;;;;;3.05;1.42;;;;;;;11.15;35.96;101768.25;4971264;28;21070;-45
2023/04/27 10:59:47;;;;;;;1.27;0.82;;;;;;;11.22;35.24;101743.38;4970216;28;20070;-45
2023/04/27 11:02:12;;;;;;;6.15;1.00;;;;;;;11.32;36.90;101737.69;4970357;28;20073;-45
2023/04/27 11:04:39;;;;;;;3.25;0.90;;;;;;;11.50;36.62;101747.41;4966045;28;20117;-46
2023/04/27 11:07:07;;;;;;;3.97;1.65;;;;;;;11.55;36.20;101737.50;4972630;28;20026;-44
2023/04/27 11:09:34;;;;;;;2.13;0.90;;;;;;;11.65;36.82;101735.28;4973453;28;20078;-45
2023/04/27 11:12:00;;;;;;;2.90;1.30;;;;;;;11.68;36.48;101735.13;4978055;28;20022;-48
2023/04/27 11:14:26;;;;;;;2.38;0.90;;;;;;;11.72;36.36;101743.78;4973435;28;20053;-45
2023/04/27 11:16:51;;;;;;;2.70;1.00;;;;;;;11.82;36.28;101760.88;4979154;28;20026;-46
2023/04/27 11:19:17;;;;;;;2.50;0.73;;;;;;;11.78;35.91;101758.47;4972771;28;20081;-46
2023/04/27 11:21:43;;;;;;;1.83;1.13;;;;;;;11.84;35.58;101742.34;4974241;28;20157;-45
2023/04/27 11:24:09;;;;;;;4.55;1.40;;;;;;;11.96;35.84;101740.91;4977433;28;20060;-46
2023/04/27 11:26:34;;;;;;;3.88;1.00;;;;;;;12.10;35.51;101748.22;4975410;28;20034;-48
2023/04/27 11:29:00;;;;;;;9.43;1.60;;;;;;;12.20;35.16;101744.19;4976911;28;20913;-48
2023/04/27 11:31:27;;;;;;;2.95;1.35;;;;;;;12.29;35.10;101750.78;4973945;28;20025;-46